Time;durP1;ratioP1;P1;durP2;ratioP2;P2;SDS_P1;SDS_P2;PMS_P1;PMS_P2;Temp;Humidity;BMP_temperature;BMP_pressure;BME280_temperature;BME280_humidity;BME280_pressure;Samples;Min_cycle;Max_cycle;Signal;HPM_P1;HPM_P2
2022/04/28 00:02:02;;;;;;;28.10;13.70;;;;;;;10.69;58.14;99553.05;105525;1283;97893;-69
2022/04/28 00:04:31;;;;;;;27.00;13.50;;;;;;;10.67;58.24;99556.68;105514;1283;111962;-69
2022/04/28 00:06:59;;;;;;;26.20;13.50;;;;;;;10.67;58.23;99556.02;105594;1283;97978;-68
2022/04/28 00:09:27;;;;;;;27.00;12.80;;;;;;;10.66;58.19;99554.62;105434;1282;108239;-70
2022/04/28 00:11:55;;;;;;;27.10;14.20;;;;;;;10.65;58.26;99556.11;105482;1283;97506;-68
2022/04/28 00:14:23;;;;;;;28.90;14.50;;;;;;;10.65;58.23;99554.88;105492;1282;97894;-68
2022/04/28 00:16:51;;;;;;;25.10;12.90;;;;;;;10.65;58.31;99557.56;105499;1283;112123;-72
2022/04/28 00:19:20;;;;;;;26.90;13.20;;;;;;;10.64;58.36;99556.56;105639;1283;97906;-67
2022/04/28 00:21:48;;;;;;;27.60;13.40;;;;;;;10.63;58.48;99552.00;105619;1283;108315;-69
2022/04/28 00:24:17;;;;;;;25.20;12.80;;;;;;;10.62;58.43;99549.09;105602;1283;96982;-66
2022/04/28 00:26:44;;;;;;;25.90;13.20;;;;;;;10.61;58.41;99548.61;105560;1283;97989;-67
2022/04/28 00:29:12;;;;;;;26.30;12.40;;;;;;;10.59;58.42;99550.34;105549;1283;112025;-68
2022/04/28 00:31:40;;;;;;;26.10;12.80;;;;;;;10.59;58.59;99550.87;105523;1282;97994;-71
2022/04/28 00:34:08;;;;;;;25.70;11.90;;;;;;;10.58;58.54;99552.14;105543;1283;108392;-68
2022/04/28 00:36:36;;;;;;;23.80;12.20;;;;;;;10.58;58.64;99552.89;105561;1283;96405;-67
2022/04/28 00:39:04;;;;;;;24.30;12.10;;;;;;;10.57;58.60;99552.77;105698;1283;97854;-69
2022/04/28 00:41:33;;;;;;;25.20;12.20;;;;;;;10.56;58.75;99552.47;105581;1283;112029;-67
2022/04/28 00:44:01;;;;;;;24.70;12.20;;;;;;;10.55;58.80;99549.70;105596;1282;99444;-70
2022/04/28 00:46:29;;;;;;;24.10;11.50;;;;;;;10.53;58.79;99548.57;105667;1283;108831;-69
2022/04/28 00:51:44;;;;;;;23.10;10.80;;;;;;;10.49;58.79;99550.41;105665;1283;97924;-69
2022/04/28 00:54:12;;;;;;;21.80;9.80;;;;;;;10.47;58.78;99549.29;105638;1283;112145;-70
2022/04/28 00:56:40;;;;;;;24.00;11.30;;;;;;;10.46;58.75;99546.20;105612;1283;95269;-69
2022/04/28 00:59:10;;;;;;;25.30;11.80;;;;;;;10.45;58.77;99545.02;105367;1283;108361;-69
2022/04/28 01:01:38;;;;;;;22.10;10.30;;;;;;;10.43;58.83;99544.23;105577;1283;98008;-70
2022/04/28 01:04:07;;;;;;;23.00;9.80;;;;;;;10.41;58.81;99547.52;105462;1282;97999;-71
2022/04/28 01:06:35;;;;;;;25.20;10.70;;;;;;;10.40;58.92;99545.85;105618;1283;111558;-68
2022/04/28 01:09:03;;;;;;;20.80;10.00;;;;;;;10.39;58.92;99546.98;105615;1283;95335;-69
2022/04/28 01:11:31;;;;;;;22.20;10.20;;;;;;;10.38;58.91;99552.36;105507;1282;108288;-70
2022/04/28 01:14:00;;;;;;;20.20;9.10;;;;;;;10.36;58.86;99551.24;105449;1282;97892;-70
2022/04/28 01:16:28;;;;;;;20.40;9.60;;;;;;;10.34;58.89;99553.80;105351;1283;97896;-69
2022/04/28 01:18:57;;;;;;;23.20;10.10;;;;;;;10.33;58.93;99548.95;105556;1283;112396;-69
2022/04/28 01:21:25;;;;;;;22.40;9.50;;;;;;;10.32;58.99;99554.16;105637;1283;97723;-69
2022/04/28 01:23:55;;;;;;;20.80;9.60;;;;;;;10.30;58.93;99557.82;105597;1283;108393;-68
2022/04/28 01:26:27;;;;;;;22.10;10.10;;;;;;;10.28;59.04;99558.27;105538;1283;96978;-68
2022/04/28 01:28:56;;;;;;;23.60;9.90;;;;;;;10.26;59.05;99560.33;105632;1282;97948;-69
2022/04/28 01:31:23;;;;;;;22.30;10.30;;;;;;;10.25;59.13;99554.39;105504;1283;112036;-70
2022/04/28 01:33:52;;;;;;;22.90;10.00;;;;;;;10.23;59.18;99551.86;105541;1283;97969;-68
2022/04/28 01:36:20;;;;;;;23.40;10.70;;;;;;;10.21;59.15;99552.66;105409;1282;108132;-70
2022/04/28 01:38:48;;;;;;;22.70;10.90;;;;;;;10.21;59.24;99553.58;105462;1283;97922;-73
2022/04/28 01:41:15;;;;;;;21.80;11.20;;;;;;;10.20;59.25;99554.73;105579;1283;97956;-70
2022/04/28 01:43:45;;;;;;;23.20;11.90;;;;;;;10.18;59.15;99556.98;105633;1283;111359;-69
2022/04/28 01:46:13;;;;;;;21.60;10.80;;;;;;;10.17;59.22;99558.30;105390;1284;97930;-67
2022/04/28 01:48:41;;;;;;;22.40;10.40;;;;;;;10.15;59.30;99559.48;105481;1283;108425;-67
2022/04/28 01:56:43;;;;;;;23.70;10.80;;;;;;;10.08;59.33;99564.52;105489;1282;112006;-69
2022/04/28 01:59:11;;;;;;;23.70;11.40;;;;;;;10.06;59.30;99563.39;105586;1283;97935;-69
2022/04/28 02:01:39;;;;;;;22.90;10.50;;;;;;;10.05;59.26;99566.13;105581;1283;107539;-70
2022/04/28 02:04:08;;;;;;;24.40;11.00;;;;;;;10.03;59.42;99565.17;105635;1283;98607;-68
2022/04/28 02:06:36;;;;;;;23.50;11.40;;;;;;;10.01;59.41;99562.27;105584;1283;96700;-70
2022/04/28 02:09:04;;;;;;;23.50;10.80;;;;;;;10.00;59.47;99566.41;105507;1283;111982;-70
2022/04/28 02:11:32;;;;;;;25.10;11.90;;;;;;;9.98;59.49;99567.58;105535;1282;97914;-70
2022/04/28 02:14:00;;;;;;;26.20;12.20;;;;;;;9.95;59.51;99569.88;105322;1283;108185;-69
2022/04/28 02:16:28;;;;;;;24.10;12.50;;;;;;;9.92;59.48;99568.67;105515;1283;96780;-69
2022/04/28 02:18:56;;;;;;;25.60;12.80;;;;;;;9.90;59.56;99572.20;105621;1283;97886;-69
2022/04/28 02:21:25;;;;;;;24.20;12.40;;;;;;;9.88;59.57;99567.88;105395;1283;112281;-68
2022/04/28 02:23:52;;;;;;;26.50;12.60;;;;;;;9.87;59.66;99570.93;105172;1285;97954;-68
2022/04/28 02:26:20;;;;;;;24.90;11.40;;;;;;;9.85;59.67;99572.30;105523;1282;108436;-69
2022/04/28 02:28:49;;;;;;;25.50;12.50;;;;;;;9.80;59.71;99570.27;105637;1281;96944;-68
2022/04/28 02:31:16;;;;;;;24.20;11.50;;;;;;;9.79;59.65;99570.00;105639;1283;97979;-69
2022/04/28 02:33:44;;;;;;;24.40;11.80;;;;;;;9.77;59.65;99568.01;105634;1283;112132;-68
2022/04/28 02:36:13;;;;;;;26.70;11.90;;;;;;;9.76;59.67;99568.38;105653;1283;98568;-68
2022/04/28 02:38:41;;;;;;;25.40;11.90;;;;;;;9.76;59.73;99570.39;105531;1283;108194;-69
2022/04/28 02:41:10;;;;;;;22.10;10.20;;;;;;;9.75;59.83;99568.86;105567;1283;98214;-68
2022/04/28 02:43:38;;;;;;;21.80;10.90;;;;;;;9.73;59.82;99572.14;105673;1283;96329;-68
2022/04/28 02:46:06;;;;;;;21.40;9.60;;;;;;;9.72;59.87;99567.58;105652;1283;110940;-69
2022/04/28 02:48:34;;;;;;;24.50;11.00;;;;;;;9.72;59.89;99566.73;105613;1283;97974;-67
2022/04/28 02:51:02;;;;;;;23.40;10.60;;;;;;;9.71;59.86;99568.20;105680;1283;108664;-67
2022/04/28 02:53:30;;;;;;;21.70;10.10;;;;;;;9.70;59.92;99567.02;105520;1283;97848;-69
2022/04/28 02:55:58;;;;;;;22.30;10.50;;;;;;;9.68;59.90;99569.41;105419;1284;98003;-69
2022/04/28 02:58:26;;;;;;;21.70;9.90;;;;;;;9.65;59.86;99565.69;105690;1283;112192;-69
2022/04/28 03:00:54;;;;;;;21.30;10.10;;;;;;;9.64;59.96;99568.44;105653;1283;97979;-68
2022/04/28 03:03:22;;;;;;;22.10;10.70;;;;;;;9.63;59.99;99571.16;105673;1282;108367;-68
2022/04/28 03:11:24;;;;;;;23.70;9.80;;;;;;;9.58;60.11;99583.14;105555;1283;112172;-68
2022/04/28 03:13:52;;;;;;;25.10;10.60;;;;;;;9.57;60.15;99586.56;105550;1283;96367;-68
2022/04/28 03:16:21;;;;;;;22.50;10.00;;;;;;;9.55;60.27;99583.33;105555;1283;107770;-70
2022/04/28 03:18:51;;;;;;;22.10;10.30;;;;;;;9.53;60.09;99585.39;105517;1283;97956;-69
2022/04/28 03:21:19;;;;;;;22.50;10.00;;;;;;;9.48;60.07;99583.18;105521;1283;97878;-70
2022/04/28 03:23:48;;;;;;;22.00;9.70;;;;;;;9.46;60.12;99586.30;105571;1283;111939;-69
2022/04/28 03:26:16;;;;;;;22.40;10.80;;;;;;;9.45;60.16;99592.38;105411;1284;97749;-69
2022/04/28 03:28:44;;;;;;;23.10;10.40;;;;;;;9.43;60.17;99590.89;105177;1285;108403;-69
2022/04/28 03:31:12;;;;;;;25.00;11.20;;;;;;;9.42;60.16;99596.11;105358;1283;96327;-70
2022/04/28 03:33:40;;;;;;;22.60;10.50;;;;;;;9.38;60.19;99599.14;105476;1283;98012;-70
2022/04/28 03:38:55;;;;;;;23.90;10.60;;;;;;;9.32;60.32;99596.33;105557;1283;95284;-69
2022/04/28 03:41:24;;;;;;;21.70;10.70;;;;;;;9.30;60.31;99599.30;105527;1283;106381;-68
2022/04/28 03:43:52;;;;;;;22.60;10.90;;;;;;;9.30;60.35;99594.55;105442;1283;181520;-68
2022/04/28 03:46:20;;;;;;;21.70;10.40;;;;;;;9.28;60.36;99596.21;105552;1283;96381;-68
2022/04/28 03:48:48;;;;;;;21.30;10.90;;;;;;;9.27;60.38;99594.72;105329;1284;112023;-66
2022/04/28 03:51:17;;;;;;;24.20;10.70;;;;;;;9.27;60.46;99593.09;105592;1282;97995;-70
2022/04/28 03:53:45;;;;;;;22.10;10.00;;;;;;;9.27;60.43;99596.67;105519;1282;107836;-70
2022/04/28 03:56:13;;;;;;;24.80;11.00;;;;;;;9.26;60.49;99595.63;105615;1282;97989;-69
2022/04/28 03:58:41;;;;;;;21.90;10.50;;;;;;;9.25;60.52;99599.23;105630;1282;97972;-69
2022/04/28 04:01:09;;;;;;;22.50;10.60;;;;;;;9.26;60.60;99604.52;105624;1283;111832;-68
2022/04/28 04:03:38;;;;;;;23.60;10.70;;;;;;;9.25;60.47;99599.58;105571;1283;97952;-66
2022/04/28 04:06:06;;;;;;;24.40;11.20;;;;;;;9.25;60.60;99604.52;105492;1283;108925;-69
2022/04/28 04:08:34;;;;;;;21.60;10.20;;;;;;;9.26;60.57;99599.55;105415;1283;95410;-69
2022/04/28 04:11:02;;;;;;;22.70;11.20;;;;;;;9.26;60.66;99605.20;105342;1284;97914;-68
2022/04/28 04:13:30;;;;;;;23.30;10.90;;;;;;;9.27;60.61;99601.58;105345;1283;111752;-70
2022/04/28 04:15:59;;;;;;;27.90;11.80;;;;;;;9.28;60.60;99605.98;105479;1283;96348;-69
2022/04/28 04:18:27;;;;;;;22.70;11.20;;;;;;;9.29;60.72;99608.21;105515;1283;106860;-69
2022/04/28 04:20:55;;;;;;;22.90;11.30;;;;;;;9.30;60.57;99612.94;105577;1283;97940;-69
2022/04/28 04:23:23;;;;;;;23.70;11.10;;;;;;;9.31;60.65;99614.45;105387;1283;97620;-68
2022/04/28 04:25:51;;;;;;;24.40;10.30;;;;;;;9.33;60.69;99615.24;105370;1282;112045;-69
2022/04/28 04:28:20;;;;;;;23.90;11.30;;;;;;;9.34;60.70;99615.86;105438;1283;95395;-68
2022/04/28 04:33:36;;;;;;;21.90;10.50;;;;;;;9.42;60.82;99609.94;105442;1282;96385;-68
2022/04/28 04:36:05;;;;;;;24.00;10.80;;;;;;;9.45;60.89;99615.26;105405;1282;97958;-69
2022/04/28 04:38:33;;;;;;;25.30;11.40;;;;;;;9.47;60.90;99614.42;105346;1282;112001;-68
2022/04/28 04:41:01;;;;;;;25.90;10.80;;;;;;;9.51;60.97;99619.13;105487;1283;97918;-67
2022/04/28 04:43:29;;;;;;;23.20;10.50;;;;;;;9.54;60.96;99625.30;105540;1283;108117;-68
2022/04/28 04:45:57;;;;;;;26.70;11.20;;;;;;;9.57;61.09;99622.68;105515;1283;97983;-66
2022/04/28 04:48:25;;;;;;;21.90;10.40;;;;;;;9.60;61.01;99624.80;105550;1282;97897;-68
2022/04/28 04:50:54;;;;;;;23.50;11.30;;;;;;;9.62;61.03;99625.73;105491;1283;111775;-68
2022/04/28 04:53:23;;;;;;;22.70;10.80;;;;;;;9.64;61.04;99627.20;105501;1282;95299;-66
2022/04/28 04:55:51;;;;;;;22.50;11.20;;;;;;;9.67;61.05;99630.23;105353;1280;107468;-68
2022/04/28 04:58:19;;;;;;;22.60;10.70;;;;;;;9.69;61.04;99630.47;105492;1283;98002;-69
2022/04/28 05:00:48;;;;;;;23.70;10.50;;;;;;;9.71;61.07;99628.73;105492;1283;97895;-67
2022/04/28 05:03:17;;;;;;;23.90;11.10;;;;;;;9.74;61.03;99627.54;105476;1283;112060;-66
2022/04/28 05:05:46;;;;;;;26.00;11.90;;;;;;;9.75;61.01;99627.81;105472;1283;98375;-66
2022/04/28 05:08:14;;;;;;;25.60;11.90;;;;;;;9.75;61.01;99631.48;105488;1282;108207;-67
2022/04/28 05:10:42;;;;;;;26.40;13.10;;;;;;;9.76;60.91;99634.50;105416;1282;95305;-68
2022/04/28 05:13:11;;;;;;;27.30;13.90;;;;;;;9.75;61.01;99637.04;105504;1282;97755;-68
2022/04/28 05:15:39;;;;;;;27.70;13.40;;;;;;;9.74;61.00;99636.93;105555;1282;111946;-68
2022/04/28 05:18:07;;;;;;;26.20;12.60;;;;;;;9.73;61.10;99640.71;105528;1283;97909;-71
2022/04/28 05:20:36;;;;;;;24.90;12.50;;;;;;;9.72;61.13;99640.40;105401;1282;108143;-69
2022/04/28 05:23:04;;;;;;;28.70;13.90;;;;;;;9.73;61.06;99639.08;105370;1282;98015;-67
2022/04/28 05:25:33;;;;;;;25.10;12.30;;;;;;;9.76;61.12;99639.64;105438;1282;97913;-67
2022/04/28 05:28:01;;;;;;;24.70;11.40;;;;;;;9.80;61.17;99641.34;105501;1282;112113;-68
2022/04/28 05:30:29;;;;;;;25.10;11.90;;;;;;;9.86;61.13;99650.20;105466;1282;96602;-68
2022/04/28 05:32:57;;;;;;;24.50;11.30;;;;;;;9.92;61.20;99649.83;105408;1282;108368;-68
2022/04/28 05:35:27;;;;;;;23.10;10.80;;;;;;;9.99;61.24;99653.83;105569;1283;97906;-68
2022/04/28 05:37:56;;;;;;;23.20;11.10;;;;;;;10.08;61.28;99652.38;105605;1282;96991;-68
2022/04/28 05:40:24;;;;;;;24.90;11.40;;;;;;;10.19;61.35;99654.89;105580;1282;111434;-67
2022/04/28 05:45:43;;;;;;;24.30;10.30;;;;;;;10.42;61.39;99652.81;105555;1283;108435;-67
2022/04/28 05:48:17;;;;;;;22.50;10.60;;;;;;;10.53;61.35;99656.73;105432;1282;98556;-66
2022/04/28 05:50:46;;;;;;;25.70;11.20;;;;;;;10.62;61.31;99657.92;105363;1284;97996;-68
2022/04/28 05:53:14;;;;;;;25.30;10.80;;;;;;;10.71;61.34;99661.98;105645;1283;110574;-69
2022/04/28 05:55:42;;;;;;;26.40;11.20;;;;;;;10.80;61.32;99662.13;105634;1283;97898;-68
2022/04/28 05:58:10;;;;;;;24.40;11.60;;;;;;;10.90;61.25;99668.77;105586;1283;108375;-68
2022/04/28 06:00:38;;;;;;;25.30;11.20;;;;;;;10.98;61.40;99673.55;105501;1283;99004;-67
2022/04/28 06:03:06;;;;;;;22.60;9.70;;;;;;;11.05;61.47;99676.84;105425;1283;97884;-68
2022/04/28 06:05:35;;;;;;;22.20;9.60;;;;;;;11.12;61.41;99678.21;105383;1283;111671;-69
2022/04/28 06:08:04;;;;;;;22.60;9.90;;;;;;;11.19;61.42;99677.40;105474;1282;97891;-69
2022/04/28 06:10:31;;;;;;;21.30;9.10;;;;;;;11.24;61.42;99681.48;105630;1283;108174;-68
2022/04/28 06:12:59;;;;;;;24.80;9.50;;;;;;;11.31;61.39;99682.27;105357;1282;98003;-67
2022/04/28 06:15:28;;;;;;;20.00;9.60;;;;;;;11.41;61.50;99680.39;105605;1283;95369;-67
2022/04/28 06:17:59;;;;;;;21.90;9.60;;;;;;;11.52;61.28;99684.09;105406;1282;112074;-66
2022/04/28 06:20:27;;;;;;;20.00;8.50;;;;;;;11.62;61.24;99680.38;105453;1282;96653;-67
2022/04/28 06:22:55;;;;;;;19.40;8.10;;;;;;;11.72;61.28;99677.59;105434;1282;109667;-66
2022/04/28 06:25:24;;;;;;;21.00;8.20;;;;;;;11.84;61.27;99677.48;105408;1283;97957;-66
2022/04/28 06:27:54;;;;;;;22.10;8.50;;;;;;;11.93;61.28;99680.27;105401;1283;95358;-65
2022/04/28 06:30:22;;;;;;;19.70;8.10;;;;;;;12.00;61.38;99684.86;105472;1283;111964;-67
2022/04/28 06:32:50;;;;;;;24.20;8.70;;;;;;;12.03;61.31;99686.54;105571;1282;97913;-68
2022/04/28 06:35:18;;;;;;;20.00;8.30;;;;;;;12.06;61.25;99685.63;105466;1282;108293;-69
2022/04/28 06:37:46;;;;;;;19.20;7.70;;;;;;;12.10;61.29;99688.79;105533;1282;97944;-69
2022/04/28 06:40:15;;;;;;;19.20;8.30;;;;;;;12.11;61.21;99685.99;105678;1283;97977;-69
2022/04/28 06:42:50;;;;;;;20.60;7.80;;;;;;;12.14;61.18;99686.17;105663;1283;111003;-68
2022/04/28 06:45:18;;;;;;;19.40;7.70;;;;;;;12.16;61.25;99692.23;105629;1283;97963;-67
2022/04/28 06:47:46;;;;;;;20.90;9.00;;;;;;;12.16;61.19;99686.40;105482;1282;108392;-67
2022/04/28 06:50:15;;;;;;;19.30;8.20;;;;;;;12.15;61.22;99695.37;105548;1283;95322;-69
2022/04/28 06:52:43;;;;;;;19.00;7.30;;;;;;;12.14;61.03;99699.15;105699;1283;97883;-66
2022/04/28 06:55:11;;;;;;;21.00;7.80;;;;;;;12.13;61.06;99699.77;105587;1282;112076;-68
2022/04/28 06:57:40;;;;;;;20.90;8.30;;;;;;;12.11;60.97;99701.99;105660;1283;97885;-68
2022/04/28 07:00:10;;;;;;;16.70;7.30;;;;;;;12.10;61.07;99705.81;105514;1283;108176;-69
2022/04/28 07:02:39;;;;;;;19.80;8.50;;;;;;;12.10;61.05;99706.01;105663;1283;97906;-67
2022/04/28 07:05:08;;;;;;;20.30;8.80;;;;;;;12.08;61.05;99705.79;105611;1283;97990;-68
2022/04/28 07:07:36;;;;;;;22.40;9.40;;;;;;;12.04;61.08;99710.98;105606;1283;111785;-67
2022/04/28 07:10:05;;;;;;;22.20;9.90;;;;;;;12.00;61.02;99712.55;105623;1283;97906;-65
2022/04/28 07:12:33;;;;;;;21.20;8.80;;;;;;;11.94;61.08;99713.81;105625;1282;107820;-68
2022/04/28 07:15:02;;;;;;;22.50;9.40;;;;;;;11.90;61.06;99720.45;105331;1283;95411;-67
2022/04/28 07:17:30;;;;;;;25.60;9.90;;;;;;;11.86;61.03;99723.21;105388;1282;97889;-66
2022/04/28 07:19:58;;;;;;;22.70;9.80;;;;;;;11.81;60.95;99728.70;105338;1283;113135;-68
2022/04/28 07:22:25;;;;;;;26.60;9.90;;;;;;;11.78;61.08;99728.38;105694;1283;96292;-67
2022/04/28 07:24:56;;;;;;;21.20;9.20;;;;;;;11.74;61.03;99726.86;105663;1283;108361;-67
2022/04/28 07:27:24;;;;;;;23.90;9.50;;;;;;;11.70;60.95;99727.88;105652;1282;97844;-68
2022/04/28 07:29:52;;;;;;;22.50;9.90;;;;;;;11.66;61.03;99727.03;105431;1282;97995;-65
2022/04/28 07:32:20;;;;;;;21.60;9.50;;;;;;;11.63;60.94;99728.48;105542;1283;112399;-67
2022/04/28 07:34:48;;;;;;;24.30;9.60;;;;;;;11.62;61.04;99733.15;105504;1283;97992;-70
2022/04/28 07:37:16;;;;;;;20.20;9.60;;;;;;;11.58;60.73;99729.52;105551;1282;108372;-67
2022/04/28 07:39:44;;;;;;;22.70;9.10;;;;;;;11.55;60.83;99730.82;105545;1282;98242;-67
2022/04/28 07:42:12;;;;;;;26.10;9.30;;;;;;;11.52;60.85;99732.62;105570;1282;97862;-68
2022/04/28 07:44:40;;;;;;;22.00;9.70;;;;;;;11.51;60.88;99731.95;105581;1283;111830;-68
2022/04/28 07:47:10;;;;;;;23.80;9.00;;;;;;;11.51;60.91;99736.41;105575;1283;97884;-69
2022/04/28 07:49:38;;;;;;;22.00;9.30;;;;;;;11.51;60.94;99737.07;105572;1283;108791;-68
2022/04/28 07:52:08;;;;;;;22.70;10.40;;;;;;;11.52;60.90;99738.08;105628;1283;97915;-67
2022/04/28 07:54:36;;;;;;;27.50;11.10;;;;;;;11.54;60.88;99737.06;105353;1283;96371;-67
2022/04/28 07:57:06;;;;;;;27.00;10.70;;;;;;;11.55;60.85;99740.73;105653;1283;112777;-68
2022/04/28 07:59:34;;;;;;;24.10;9.50;;;;;;;11.57;60.86;99743.63;105605;1283;98029;-68
2022/04/28 08:02:08;;;;;;;24.10;10.10;;;;;;;11.58;60.87;99746.08;105494;1282;107208;-68
2022/04/28 08:04:36;;;;;;;22.50;9.10;;;;;;;11.62;60.95;99750.94;105579;1283;98012;-67
2022/04/28 08:07:04;;;;;;;25.00;8.90;;;;;;;11.67;60.90;99753.64;105413;1283;95314;-68
2022/04/28 08:09:34;;;;;;;23.60;10.20;;;;;;;11.72;60.92;99752.04;105274;1284;111042;-68
2022/04/28 08:12:09;;;;;;;26.60;12.20;;;;;;;11.79;61.04;99748.20;105531;1282;97824;-66
2022/04/28 08:14:57;;;;;;;28.30;11.10;;;;;;;11.88;60.91;99749.95;105566;1283;108745;-66
2022/04/28 08:17:26;;;;;;;22.00;10.30;;;;;;;11.96;60.82;99748.89;105631;1283;97919;-66
2022/04/28 08:19:57;;;;;;;24.30;9.20;;;;;;;12.03;60.83;99751.11;105664;1282;98080;-68
2022/04/28 08:22:25;;;;;;;20.20;9.20;;;;;;;12.09;60.91;99749.59;105576;1283;112151;-67
2022/04/28 08:24:55;;;;;;;22.60;8.10;;;;;;;12.20;60.91;99751.52;105637;1283;95194;-64
2022/04/28 08:27:25;;;;;;;20.80;8.40;;;;;;;12.28;60.70;99750.14;105527;1284;108395;-66
2022/04/28 08:29:55;;;;;;;22.20;9.10;;;;;;;12.39;60.79;99752.94;105564;1284;98038;-66
2022/04/28 08:32:25;;;;;;;21.80;9.70;;;;;;;12.52;60.78;99753.41;105684;1283;97886;-68
2022/04/28 08:34:58;;;;;;;23.10;10.20;;;;;;;12.66;60.73;99751.41;105542;1283;112433;-67
2022/04/28 08:37:26;;;;;;;25.30;10.50;;;;;;;12.79;60.72;99750.29;105580;1283;97988;-68
2022/04/28 08:39:54;;;;;;;23.60;9.70;;;;;;;12.94;60.67;99749.79;105524;1283;108395;-70
2022/04/28 08:42:26;;;;;;;20.90;8.80;;;;;;;13.08;60.64;99748.26;105517;1281;98080;-68
2022/04/28 08:45:00;;;;;;;19.60;7.90;;;;;;;13.23;60.50;99748.98;105504;1282;97932;-67
2022/04/28 08:47:33;;;;;;;22.20;8.00;;;;;;;13.40;60.53;99747.04;105497;1281;112062;-68
2022/04/28 08:50:03;;;;;;;22.30;8.30;;;;;;;13.91;60.40;99745.93;105453;1282;95258;-68
2022/04/28 08:52:36;;;;;;;19.30;7.70;;;;;;;14.85;60.11;99744.81;105301;1282;108271;-68
2022/04/28 08:55:08;;;;;;;15.30;6.40;;;;;;;15.43;60.03;99744.55;105428;1282;98395;-67
2022/04/28 08:57:37;;;;;;;20.80;7.70;;;;;;;16.66;59.37;99735.51;105511;1282;97835;-68
2022/04/28 09:00:09;;;;;;;18.20;7.40;;;;;;;17.80;59.58;99730.75;105532;1283;111031;-68
2022/04/28 09:02:37;;;;;;;17.80;7.10;;;;;;;18.67;59.57;99734.56;105573;1283;98030;-67
2022/04/28 09:05:10;;;;;;;15.10;6.60;;;;;;;19.54;59.25;99734.77;105588;1283;107834;-68
2022/04/28 09:07:45;;;;;;;19.10;7.50;;;;;;;20.57;59.05;99728.70;105637;1282;97887;-67
2022/04/28 09:10:33;;;;;;;18.00;7.00;;;;;;;21.68;58.92;99727.58;105602;1282;97983;-68
2022/04/28 09:15:59;;;;;;;16.50;6.90;;;;;;;23.93;58.28;99726.14;105558;1282;97967;-67
2022/04/28 09:18:34;;;;;;;16.20;6.80;;;;;;;24.80;58.17;99723.00;105578;1283;108917;-67
2022/04/28 09:21:07;;;;;;;17.20;6.40;;;;;;;25.57;57.99;99721.79;105614;1283;97988;-69
2022/04/28 09:23:36;;;;;;;16.70;6.30;;;;;;;26.26;57.33;99723.80;105670;1282;95272;-71
2022/04/28 09:26:07;;;;;;;11.60;5.80;;;;;;;26.73;57.41;99725.16;105610;1283;111819;-71
2022/04/28 09:28:35;;;;;;;12.20;6.30;;;;;;;27.05;57.28;99726.89;105622;1283;97895;-69
2022/04/28 09:31:10;;;;;;;12.00;5.40;;;;;;;27.56;57.26;99726.64;105562;1283;107881;-68
2022/04/28 09:33:41;;;;;;;14.10;6.00;;;;;;;27.96;56.01;99723.16;105301;1283;95379;-69
2022/04/28 09:36:16;;;;;;;11.80;5.20;;;;;;;28.10;56.14;99721.78;105517;1282;96491;-69
2022/04/28 09:38:44;;;;;;;10.40;5.40;;;;;;;28.36;55.69;99719.21;105544;1282;112052;-68
2022/04/28 09:44:00;;;;;;;10.90;5.50;;;;;;;27.38;54.14;99721.30;105447;1283;108384;-68
2022/04/28 09:46:38;;;;;;;;;;;;;;;27.34;54.09;99722.84;105331;1283;97821;-67
2022/04/28 09:49:12;;;;;;;12.20;5.60;;;;;;;27.67;54.08;99725.20;105448;1283;96653;-68
2022/04/28 09:51:43;;;;;;;11.60;5.40;;;;;;;28.08;54.09;99719.81;105464;1282;110943;-68
2022/04/28 09:54:17;;;;;;;9.70;4.30;;;;;;;28.26;53.56;99717.34;105652;1283;97970;-69
2022/04/28 09:56:46;;;;;;;7.10;4.30;;;;;;;28.20;53.36;99721.30;105605;1283;108347;-69
2022/04/28 09:59:14;;;;;;;9.60;4.60;;;;;;;28.02;53.14;99721.78;105537;1283;97864;-68
2022/04/28 10:01:43;;;;;;;9.60;4.80;;;;;;;27.86;52.90;99721.56;106454;1283;96542;-67
2022/04/28 10:04:12;;;;;;;8.90;4.80;;;;;;;27.39;52.41;99724.15;105503;1282;112107;-68
2022/04/28 10:06:45;;;;;;;11.10;4.50;;;;;;;26.64;52.12;99721.11;105736;1283;95788;-68
2022/04/28 10:09:17;;;;;;;10.00;4.90;;;;;;;26.13;51.43;99717.62;105464;1283;108347;-68
2022/04/28 10:11:48;;;;;;;8.50;4.20;;;;;;;25.60;51.27;99714.89;105436;1283;97894;-68
2022/04/28 10:14:22;;;;;;;10.80;4.80;;;;;;;25.34;51.35;99710.77;105631;1282;97817;-67
2022/04/28 10:16:52;;;;;;;12.10;5.40;;;;;;;25.17;50.79;99708.70;105568;1283;112023;-67
2022/04/28 10:19:32;;;;;;;10.80;5.20;;;;;;;24.98;50.52;99707.11;106193;1282;96275;-68
2022/04/28 10:22:10;;;;;;;9.50;4.30;;;;;;;24.67;50.34;99705.38;105582;1283;107827;-67
2022/04/28 10:33:27;;;;;;;7.60;3.40;;;;;;;23.23;48.38;99705.52;104889;1284;98045;-68
2022/04/28 10:36:01;;;;;;;5.10;3.10;;;;;;;22.74;47.83;99713.99;105306;1283;108381;-69
2022/04/28 10:38:35;;;;;;;5.80;2.90;;;;;;;22.36;48.06;99707.59;105554;1283;97917;-68
2022/04/28 10:41:16;;;;;;;6.40;3.50;;;;;;;22.20;47.93;99706.63;105504;1282;95281;-68
2022/04/28 10:43:45;;;;;;;11.10;4.00;;;;;;;22.06;47.85;99711.05;105578;1283;112216;-72
2022/04/28 10:46:22;;;;;;;8.40;4.10;;;;;;;21.82;47.42;99708.82;105570;1282;96355;-69
2022/04/28 10:48:57;;;;;;;9.20;4.10;;;;;;;21.62;47.39;99707.92;105572;1283;108420;-68
2022/04/28 10:51:31;;;;;;;8.10;3.90;;;;;;;21.41;47.25;99706.73;105279;1283;95304;-68
2022/04/28 10:54:10;;;;;;;5.80;3.50;;;;;;;21.25;47.01;99709.14;105604;1283;97883;-67
2022/04/28 10:56:42;;;;;;;8.90;3.40;;;;;;;21.19;46.60;99709.96;105600;1283;111433;-68
2022/04/28 10:59:26;;;;;;;9.80;3.10;;;;;;;21.13;46.67;99709.17;105645;1283;95216;-68
2022/04/28 11:01:57;;;;;;;8.60;3.40;;;;;;;21.13;46.82;99710.25;105543;1283;108856;-69
2022/04/28 11:04:26;;;;;;;7.60;3.70;;;;;;;21.14;46.67;99711.77;105584;1282;97978;-69
2022/04/28 11:07:05;;;;;;;6.80;3.60;;;;;;;21.16;46.30;99712.98;105582;1283;97973;-68
2022/04/28 11:09:41;;;;;;;10.70;4.20;;;;;;;21.18;46.07;99706.98;105578;1283;111351;-68
2022/04/28 11:12:15;;;;;;;7.10;3.60;;;;;;;21.19;46.03;99705.66;105586;1282;97915;-69
2022/04/28 11:14:45;;;;;;;10.30;3.80;;;;;;;21.06;46.06;99703.64;105499;1283;107862;-69
2022/04/28 11:17:22;;;;;;;7.20;3.40;;;;;;;20.98;46.12;99705.13;105542;1283;96363;-69
2022/04/28 11:19:51;;;;;;;6.80;3.80;;;;;;;20.95;45.83;99702.27;105631;1283;97969;-72
2022/04/28 11:22:23;;;;;;;8.40;3.60;;;;;;;20.93;45.83;99701.91;105642;1283;113134;-71
2022/04/28 11:24:51;;;;;;;8.50;3.90;;;;;;;20.92;45.48;99703.96;105677;1283;97903;-70
2022/04/28 11:27:27;;;;;;;10.70;4.20;;;;;;;20.84;45.35;99703.19;105642;1283;108423;-68
2022/04/28 11:29:59;;;;;;;10.20;4.00;;;;;;;20.75;45.17;99704.86;105684;1283;96427;-69
2022/04/28 11:32:28;;;;;;;9.00;3.80;;;;;;;20.62;45.19;99704.52;105577;1283;97752;-68
2022/04/28 11:35:00;;;;;;;9.30;4.10;;;;;;;20.50;44.94;99706.55;105607;1283;111819;-68
2022/04/28 11:37:30;;;;;;;8.40;4.30;;;;;;;20.36;44.81;99706.14;105693;1283;97893;-69
2022/04/28 11:39:58;;;;;;;8.50;3.90;;;;;;;20.25;44.90;99706.02;105662;1283;107520;-70
2022/04/28 11:42:59;;;;;;;9.40;4.00;;;;;;;20.08;44.71;99706.48;105631;1283;97899;-68
2022/04/28 11:45:37;;;;;;;10.80;4.30;;;;;;;19.97;44.74;99703.10;105653;1283;95221;-68
2022/04/28 11:48:09;;;;;;;8.10;3.90;;;;;;;19.87;44.58;99707.23;105407;1284;111054;-69
2022/04/28 11:50:37;;;;;;;11.60;4.50;;;;;;;19.74;44.57;99704.88;105672;1283;97597;-68
2022/04/28 11:53:12;;;;;;;10.50;4.00;;;;;;;19.66;44.50;99709.84;105369;1283;107296;-68
2022/04/28 11:55:42;;;;;;;;;;;;;;;19.58;44.35;99714.59;105655;1283;98641;-67
2022/04/28 11:58:15;;;;;;;7.80;4.00;;;;;;;19.40;44.30;99716.01;105639;1283;97981;-68
2022/04/28 12:00:47;;;;;;;6.60;3.50;;;;;;;19.26;44.23;99716.13;105434;1284;112019;-70
2022/04/28 12:03:30;;;;;;;10.00;3.60;;;;;;;19.06;44.14;99719.11;105669;1283;97979;-68